createdAt,value
2022-10-06T00:00:43.181Z,69.59
2022-10-06T00:01:43.170Z,67.79
2022-10-06T00:02:43.145Z,66.19
2022-10-06T00:03:43.104Z,68.67
2022-10-06T00:04:43.057Z,67.65
2022-10-06T00:05:43.066Z,68.36
2022-10-06T00:06:43.009Z,67.86
2022-10-06T00:07:42.978Z,68.34
2022-10-06T00:08:43.967Z,68.72
2022-10-06T00:09:42.943Z,67.84
2022-10-06T00:10:42.950Z,67.62
2022-10-06T00:11:42.897Z,66.23
2022-10-06T00:12:42.872Z,68.88
2022-10-06T00:13:42.852Z,70.01
2022-10-06T00:14:42.828Z,65.96
2022-10-06T00:15:42.893Z,66.95
2022-10-06T00:16:42.787Z,68.24
2022-10-06T00:17:42.761Z,68.48
2022-10-06T00:18:42.740Z,69.13
2022-10-06T00:19:42.717Z,65.92
2022-10-06T00:20:42.786Z,69.61
2022-10-06T00:21:42.672Z,67.87
2022-10-06T00:22:42.648Z,70.26
2022-10-06T00:23:42.627Z,67.58
2022-10-06T00:24:42.601Z,69.04
2022-10-06T00:25:42.606Z,68.00
2022-10-06T00:26:42.558Z,68.46
2022-10-06T00:27:42.550Z,66.98
2022-10-06T00:28:42.568Z,65.77
2022-10-06T00:29:42.514Z,66.65
2022-10-06T00:30:42.502Z,67.89
2022-10-06T00:31:42.444Z,64.64
2022-10-06T00:32:42.424Z,64.92
2022-10-06T00:33:42.400Z,66.01
2022-10-06T00:34:42.380Z,66.36
2022-10-06T00:35:42.380Z,64.56
2022-10-06T00:36:42.333Z,69.87
2022-10-06T00:37:42.308Z,66.46
2022-10-06T00:38:42.283Z,69.27
2022-10-06T00:39:42.262Z,67.90
2022-10-06T00:40:42.269Z,65.12
2022-10-06T00:41:42.221Z,66.98
2022-10-06T00:42:42.197Z,69.22
2022-10-06T00:43:42.170Z,68.48
2022-10-06T00:44:42.160Z,67.66
2022-10-06T00:45:42.159Z,68.92
2022-10-06T00:46:42.185Z,66.85
2022-10-06T00:47:42.086Z,70.05
2022-10-06T00:48:42.064Z,67.92
2022-10-06T00:49:42.039Z,68.33
2022-10-06T00:50:42.049Z,68.52
2022-10-06T00:51:41.994Z,68.59
2022-10-06T00:52:41.976Z,70.53
2022-10-06T00:53:41.948Z,66.84
2022-10-06T00:54:41.926Z,68.38
2022-10-06T00:55:41.934Z,69.32
2022-10-06T00:56:41.885Z,67.80
2022-10-06T00:57:41.865Z,66.55
2022-10-06T00:58:41.840Z,65.01
2022-10-06T00:59:41.816Z,68.35
2022-10-06T01:00:41.818Z,67.27
2022-10-06T01:01:41.825Z,64.84
2022-10-06T01:02:41.809Z,69.51
2022-10-06T01:03:41.727Z,65.78
2022-10-06T01:04:41.709Z,68.55
2022-10-06T01:05:41.718Z,66.83
2022-10-06T01:06:41.662Z,67.50
2022-10-06T01:07:41.635Z,69.72
2022-10-06T01:08:41.613Z,66.42
2022-10-06T01:09:41.594Z,69.09
2022-10-06T01:10:41.600Z,69.34
2022-10-06T01:11:41.551Z,70.65
2022-10-06T01:12:41.527Z,65.35
2022-10-06T01:13:41.509Z,68.99
2022-10-06T01:14:41.482Z,65.79
2022-10-06T01:15:41.534Z,67.28
2022-10-06T01:16:41.441Z,68.26
2022-10-06T01:17:41.416Z,68.86
2022-10-06T01:18:41.398Z,66.46
2022-10-06T01:19:41.403Z,67.44
2022-10-06T01:20:41.380Z,69.05
2022-10-06T01:21:41.327Z,68.71
2022-10-06T01:22:41.308Z,69.69
2022-10-06T01:23:41.284Z,69.36
2022-10-06T01:24:41.267Z,68.34
2022-10-06T01:25:41.243Z,70.07
2022-10-06T01:26:41.249Z,67.58
2022-10-06T01:27:41.200Z,68.56
2022-10-06T01:28:41.210Z,69.80
2022-10-06T01:29:41.155Z,70.92
2022-10-06T01:30:41.249Z,69.47
2022-10-06T01:31:41.135Z,65.52
2022-10-06T01:32:41.089Z,69.60
2022-10-06T01:33:41.067Z,71.14
2022-10-06T01:34:41.043Z,65.19
2022-10-06T01:35:41.024Z,66.40
2022-10-06T01:36:41.022Z,67.71
2022-10-06T01:37:40.971Z,70.84
2022-10-06T01:38:40.947Z,71.08
2022-10-06T01:39:40.930Z,68.80
2022-10-06T01:40:40.910Z,69.10
2022-10-06T01:41:40.912Z,70.17
2022-10-06T01:42:40.869Z,70.46
2022-10-06T01:43:40.843Z,68.16
2022-10-06T01:44:40.822Z,70.73
2022-10-06T01:45:40.799Z,69.95
2022-10-06T01:46:40.920Z,71.35
2022-10-06T01:47:40.752Z,69.57
2022-10-06T01:48:40.841Z,69.77
2022-10-06T01:49:40.705Z,70.18
2022-10-06T01:50:40.678Z,67.64
2022-10-06T01:51:40.687Z,69.80
2022-10-06T01:52:40.639Z,69.04
2022-10-06T01:53:40.616Z,69.29
2022-10-06T01:54:40.593Z,71.09
2022-10-06T01:55:40.572Z,70.43
2022-10-06T01:56:40.575Z,68.72
2022-10-06T01:57:40.526Z,70.47
2022-10-06T01:58:40.500Z,71.43
2022-10-06T01:59:40.480Z,69.69
2022-10-06T02:00:40.486Z,68.62
2022-10-06T02:01:40.541Z,69.90
2022-10-06T02:02:40.407Z,69.85
2022-10-06T02:03:40.387Z,67.72
2022-10-06T02:04:40.362Z,70.97
2022-10-06T02:05:40.345Z,70.96
2022-10-06T02:06:40.444Z,69.57
2022-10-06T02:07:40.286Z,70.27
2022-10-06T02:08:41.272Z,69.33
2022-10-06T02:09:40.247Z,70.83
2022-10-06T02:10:40.224Z,70.12
2022-10-06T02:11:40.234Z,68.40
2022-10-06T02:12:40.178Z,69.55
2022-10-06T02:13:40.156Z,68.97
2022-10-06T02:14:40.134Z,72.05
2022-10-06T02:15:40.169Z,70.79
2022-10-06T02:16:40.114Z,69.48
2022-10-06T02:17:40.065Z,70.49
2022-10-06T02:18:40.041Z,71.29
2022-10-06T02:19:40.021Z,70.78
2022-10-06T02:20:40.024Z,70.66
2022-10-06T02:21:39.976Z,67.80
2022-10-06T02:22:39.946Z,70.61
2022-10-06T02:23:39.926Z,69.09
2022-10-06T02:24:39.909Z,70.04
2022-10-06T02:25:39.917Z,68.05
2022-10-06T02:26:39.859Z,69.75
2022-10-06T02:27:39.837Z,67.13
2022-10-06T02:28:39.887Z,69.92
2022-10-06T02:29:39.788Z,71.01
2022-10-06T02:30:39.823Z,72.08
2022-10-06T02:31:40.107Z,72.19
2022-10-06T02:32:39.722Z,70.50
2022-10-06T02:33:39.700Z,68.24
2022-10-06T02:34:39.675Z,69.62
2022-10-06T02:35:39.653Z,70.41
2022-10-06T02:36:39.656Z,70.83
2022-10-06T02:37:39.605Z,70.38
2022-10-06T02:38:39.588Z,70.15
2022-10-06T02:39:39.561Z,71.22
2022-10-06T02:40:39.539Z,71.15
2022-10-06T02:41:39.543Z,71.50
2022-10-06T02:42:39.495Z,67.65
2022-10-06T02:43:39.481Z,70.10
2022-10-06T02:44:39.458Z,71.31
2022-10-06T02:45:39.432Z,71.49
2022-10-06T02:46:39.506Z,70.33
2022-10-06T02:47:39.389Z,70.24
2022-10-06T02:48:39.369Z,70.69
2022-10-06T02:49:39.347Z,67.98
2022-10-06T02:50:39.327Z,69.66
2022-10-06T02:51:39.327Z,69.82
2022-10-06T02:52:39.278Z,70.02
2022-10-06T02:53:39.255Z,71.49
2022-10-06T02:54:39.236Z,70.18
2022-10-06T02:55:39.217Z,71.35
2022-10-06T02:56:39.219Z,69.67
2022-10-06T02:57:39.169Z,69.75
2022-10-06T02:58:39.151Z,68.39
2022-10-06T02:59:39.125Z,69.44
2022-10-06T03:00:39.108Z,70.53
2022-10-06T03:01:39.217Z,70.68
2022-10-06T03:02:39.155Z,70.81
2022-10-06T03:03:39.046Z,72.12
2022-10-06T03:04:39.022Z,69.78
2022-10-06T03:05:39.002Z,70.17
2022-10-06T03:06:39.008Z,72.05
2022-10-06T03:07:39.025Z,68.81
2022-10-06T03:08:38.933Z,70.99
2022-10-06T03:09:38.913Z,68.38
2022-10-06T03:10:38.895Z,71.09
2022-10-06T03:11:38.897Z,71.37
2022-10-06T03:12:38.851Z,70.40
2022-10-06T03:13:38.823Z,71.98
2022-10-06T03:14:38.806Z,67.95
2022-10-06T03:15:38.785Z,73.79
2022-10-06T03:16:38.802Z,72.56
2022-10-06T03:17:38.744Z,70.32
2022-10-06T03:18:38.720Z,71.94
2022-10-06T03:19:38.700Z,73.73
2022-10-06T03:20:38.708Z,73.27
2022-10-06T03:21:38.684Z,73.19
2022-10-06T03:22:38.643Z,72.56
2022-10-06T03:23:38.618Z,72.41
2022-10-06T03:24:38.604Z,73.25
2022-10-06T03:25:38.573Z,72.77
2022-10-06T03:26:38.581Z,70.31
2022-10-06T03:27:38.534Z,71.73
2022-10-06T03:28:38.531Z,72.25
2022-10-06T03:29:38.487Z,70.48
2022-10-06T03:30:38.472Z,72.60
2022-10-06T03:31:38.498Z,70.57
2022-10-06T03:32:38.426Z,71.66
2022-10-06T03:33:38.404Z,69.02
2022-10-06T03:34:38.382Z,70.26
2022-10-06T03:35:38.365Z,69.05
2022-10-06T03:36:38.367Z,73.61
2022-10-06T03:37:38.320Z,71.05
2022-10-06T03:38:38.300Z,73.07
2022-10-06T03:39:38.286Z,70.62
2022-10-06T03:40:38.286Z,73.14
2022-10-06T03:41:38.264Z,73.52
2022-10-06T03:42:38.219Z,72.36
2022-10-06T03:43:38.193Z,71.74
2022-10-06T03:44:38.173Z,71.29
2022-10-06T03:45:38.181Z,71.38
2022-10-06T03:46:38.241Z,72.10
2022-10-06T03:47:38.113Z,72.69
2022-10-06T03:48:38.091Z,72.05
2022-10-06T03:49:38.069Z,70.50
2022-10-06T03:50:38.043Z,69.02
2022-10-06T03:51:38.054Z,72.80
2022-10-06T03:52:38.005Z,70.83
2022-10-06T03:53:37.981Z,72.25
2022-10-06T03:54:37.961Z,73.75
2022-10-06T03:55:37.944Z,72.71
2022-10-06T03:56:37.949Z,69.84
2022-10-06T03:57:37.899Z,73.88
2022-10-06T03:58:37.876Z,73.35
2022-10-06T03:59:37.853Z,70.78
2022-10-06T04:00:37.857Z,72.17
2022-10-06T04:01:37.943Z,72.57
2022-10-06T04:02:37.792Z,70.44
2022-10-06T04:03:37.767Z,73.67
2022-10-06T04:04:37.752Z,71.25
2022-10-06T04:05:37.736Z,72.45
2022-10-06T04:06:37.734Z,73.01
2022-10-06T04:07:37.686Z,73.05
2022-10-06T04:08:37.666Z,71.29
2022-10-06T04:09:37.647Z,73.18
2022-10-06T04:10:37.626Z,72.12
2022-10-06T04:11:37.631Z,72.60
2022-10-06T04:12:37.584Z,73.72
2022-10-06T04:13:37.563Z,72.35
2022-10-06T04:14:37.544Z,72.81
2022-10-06T04:15:37.524Z,71.20
2022-10-06T04:16:37.563Z,73.61
2022-10-06T04:17:37.484Z,70.43
2022-10-06T04:18:37.467Z,73.63
2022-10-06T04:19:37.441Z,73.31
2022-10-06T04:20:37.426Z,74.04
2022-10-06T04:21:37.438Z,73.50
2022-10-06T04:22:37.390Z,73.45
2022-10-06T04:23:37.376Z,70.60
2022-10-06T04:24:37.343Z,74.93
2022-10-06T04:25:37.322Z,71.87
2022-10-06T04:26:37.333Z,72.75
2022-10-06T04:27:37.289Z,73.61
2022-10-06T04:28:37.299Z,72.43
2022-10-06T04:29:37.332Z,73.19
2022-10-06T04:30:37.227Z,70.56
2022-10-06T04:31:37.336Z,73.06
2022-10-06T04:32:37.189Z,72.85
2022-10-06T04:33:37.165Z,74.43
2022-10-06T04:34:37.146Z,72.09
2022-10-06T04:35:37.125Z,71.91
2022-10-06T04:36:37.132Z,73.71
2022-10-06T04:37:37.083Z,72.90
2022-10-06T04:38:37.065Z,73.25
2022-10-06T04:39:37.046Z,71.80
2022-10-06T04:40:37.027Z,71.83
2022-10-06T04:41:37.028Z,72.34
2022-10-06T04:42:36.984Z,72.78
2022-10-06T04:43:36.965Z,73.16
2022-10-06T04:44:36.944Z,72.54
2022-10-06T04:45:36.984Z,71.14
2022-10-06T04:46:45.053Z,73.06
2022-10-06T04:47:38.893Z,73.48
2022-10-06T04:48:36.870Z,73.32
2022-10-06T04:49:36.850Z,71.86
2022-10-06T04:50:36.829Z,73.19
2022-10-06T04:51:36.855Z,73.61
2022-10-06T04:52:36.797Z,72.99
2022-10-06T04:53:36.776Z,70.97
2022-10-06T04:54:36.759Z,73.79
2022-10-06T04:55:36.733Z,72.72
2022-10-06T04:56:36.740Z,73.92
2022-10-06T04:57:36.697Z,72.87
2022-10-06T04:58:36.680Z,72.65
2022-10-06T04:59:36.660Z,72.74
2022-10-06T05:00:36.679Z,73.89
2022-10-06T05:01:36.655Z,72.83
2022-10-06T05:02:36.687Z,72.32
2022-10-06T05:03:36.583Z,72.48
2022-10-06T05:04:36.571Z,70.77
2022-10-06T05:05:36.547Z,71.79
2022-10-06T05:06:36.571Z,73.18
2022-10-06T05:07:36.512Z,72.89
2022-10-06T05:08:36.492Z,73.24
2022-10-06T05:09:36.483Z,73.67
2022-10-06T05:10:36.484Z,73.57
2022-10-06T05:11:36.462Z,73.01
2022-10-06T05:12:36.418Z,72.66
2022-10-06T05:13:36.399Z,73.73
2022-10-06T05:14:36.382Z,73.61
2022-10-06T05:15:36.360Z,72.76
2022-10-06T05:16:36.421Z,73.04
2022-10-06T05:17:36.321Z,72.93
2022-10-06T05:18:36.305Z,73.44
2022-10-06T05:19:36.282Z,73.11
2022-10-06T05:20:36.262Z,74.05
2022-10-06T05:21:36.271Z,72.74
2022-10-06T05:22:36.227Z,74.74
2022-10-06T05:23:36.203Z,73.02
2022-10-06T05:24:36.186Z,71.39
2022-10-06T05:25:36.168Z,74.22
2022-10-06T05:26:36.174Z,69.15
2022-10-06T05:27:36.127Z,72.65
2022-10-06T05:28:36.176Z,72.25
2022-10-06T05:29:36.090Z,74.18
2022-10-06T05:30:36.069Z,72.28
2022-10-06T05:31:36.191Z,70.75
2022-10-06T05:32:36.365Z,71.40
2022-10-06T05:33:37.050Z,72.59
2022-10-06T05:34:35.988Z,72.35
2022-10-06T05:35:35.966Z,75.71
2022-10-06T05:36:35.973Z,72.76
2022-10-06T05:37:35.928Z,73.41
2022-10-06T05:38:35.905Z,72.37
2022-10-06T05:39:35.885Z,72.85
2022-10-06T05:40:35.866Z,74.76
2022-10-06T05:41:35.868Z,74.41
2022-10-06T05:42:35.830Z,69.79
2022-10-06T05:43:35.807Z,71.30
2022-10-06T05:44:35.786Z,73.08
2022-10-06T05:45:35.807Z,73.16
2022-10-06T05:46:35.772Z,74.64
2022-10-06T05:47:35.725Z,73.35
2022-10-06T05:48:35.706Z,74.23
2022-10-06T05:49:35.686Z,72.31
2022-10-06T05:50:35.666Z,74.21
2022-10-06T05:51:35.675Z,72.94
2022-10-06T05:52:35.625Z,72.19
2022-10-06T05:53:35.610Z,74.32
2022-10-06T05:54:35.586Z,72.48
2022-10-06T05:55:35.565Z,73.11
2022-10-06T05:56:35.571Z,73.39
2022-10-06T05:57:35.523Z,74.48
2022-10-06T05:58:35.863Z,72.06
2022-10-06T05:59:35.482Z,71.79
2022-10-06T06:00:35.468Z,73.98
2022-10-06T06:01:35.501Z,72.16
2022-10-06T06:02:35.447Z,71.57
2022-10-06T06:03:35.391Z,73.68
2022-10-06T06:04:35.374Z,73.54
2022-10-06T06:05:35.349Z,73.51
2022-10-06T06:06:35.355Z,71.81
2022-10-06T06:07:35.298Z,72.66
2022-10-06T06:08:35.285Z,73.09
2022-10-06T06:09:35.257Z,74.13
2022-10-06T06:10:35.235Z,73.10
2022-10-06T06:11:35.243Z,73.09
2022-10-06T06:12:35.187Z,72.65
2022-10-06T06:13:35.167Z,72.30
2022-10-06T06:14:35.144Z,73.35
2022-10-06T06:15:35.123Z,72.74
2022-10-06T06:16:35.164Z,73.18
2022-10-06T06:17:35.086Z,72.12
2022-10-06T06:18:35.063Z,72.74
2022-10-06T06:19:35.044Z,70.48
2022-10-06T06:20:35.024Z,71.28
2022-10-06T06:21:35.035Z,73.85
2022-10-06T06:22:34.986Z,71.21
2022-10-06T06:23:34.966Z,73.70
2022-10-06T06:24:34.944Z,71.68
2022-10-06T06:25:34.925Z,73.20
2022-10-06T06:26:34.932Z,68.74
2022-10-06T06:27:34.893Z,72.26
2022-10-06T06:28:35.160Z,71.64
2022-10-06T06:29:34.851Z,72.29
2022-10-06T06:30:34.878Z,72.83
2022-10-06T06:31:34.932Z,72.01
2022-10-06T06:32:34.805Z,71.45
2022-10-06T06:33:34.771Z,72.12
2022-10-06T06:34:34.755Z,70.55
2022-10-06T06:35:34.737Z,73.67
2022-10-06T06:36:34.750Z,72.51
2022-10-06T06:37:34.702Z,70.37
2022-10-06T06:38:34.690Z,72.42
2022-10-06T06:39:34.664Z,71.50
2022-10-06T06:40:34.641Z,72.31
2022-10-06T06:41:34.653Z,70.92
2022-10-06T06:42:34.606Z,73.20
2022-10-06T06:43:34.595Z,69.77
2022-10-06T06:44:34.574Z,70.62
2022-10-06T06:45:34.577Z,73.30
2022-10-06T06:47:35.514Z,70.97
2022-10-06T06:48:34.497Z,69.88
2022-10-06T06:49:34.489Z,70.83
2022-10-06T06:50:34.459Z,71.63
2022-10-06T06:51:34.497Z,70.34
2022-10-06T06:52:34.426Z,72.02
2022-10-06T06:53:34.403Z,71.86
2022-10-06T06:54:34.377Z,71.18
2022-10-06T06:55:34.364Z,69.75
2022-10-06T06:56:34.374Z,70.02
2022-10-06T06:57:34.329Z,70.53
2022-10-06T06:58:34.331Z,71.82
2022-10-06T06:59:34.295Z,70.52
2022-10-06T07:00:36.340Z,71.00
2022-10-06T07:01:35.320Z,71.52
2022-10-06T07:02:35.272Z,70.49
2022-10-06T07:03:56.185Z,68.69
2022-10-06T07:04:36.202Z,70.76
2022-10-06T07:05:34.188Z,69.55
2022-10-06T07:06:34.198Z,69.82
2022-10-06T07:07:34.148Z,71.29
2022-10-06T07:08:34.127Z,69.93
2022-10-06T07:09:34.112Z,71.20
2022-10-06T07:10:34.091Z,70.55
2022-10-06T07:11:34.110Z,69.62
2022-10-06T07:12:34.059Z,69.12
2022-10-06T07:13:34.040Z,71.12
2022-10-06T07:14:34.023Z,71.22
2022-10-06T07:15:34.023Z,69.81
2022-10-06T07:16:34.018Z,68.71
2022-10-06T07:17:33.970Z,70.45
2022-10-06T07:18:33.949Z,68.82
2022-10-06T07:19:33.936Z,70.35
2022-10-06T07:20:33.914Z,70.58
2022-10-06T07:21:33.927Z,69.75
2022-10-06T07:22:33.882Z,67.10
2022-10-06T07:23:33.867Z,70.23
2022-10-06T07:24:33.849Z,71.06
2022-10-06T07:25:33.830Z,71.71
2022-10-06T07:26:33.839Z,70.79
2022-10-06T07:27:33.791Z,71.37
2022-10-06T07:28:33.820Z,70.16
2022-10-06T07:29:33.752Z,70.15
2022-10-06T07:30:38.390Z,71.70
2022-10-06T07:31:35.792Z,70.39
2022-10-06T07:32:33.704Z,67.85
2022-10-06T07:33:33.683Z,70.25
2022-10-06T07:34:33.726Z,70.36
2022-10-06T07:35:33.648Z,68.76
2022-10-06T07:36:33.658Z,69.77
2022-10-06T07:37:33.611Z,71.50
2022-10-06T07:38:33.596Z,71.15
2022-10-06T07:39:33.577Z,71.32
2022-10-06T07:40:33.567Z,69.85
2022-10-06T07:41:33.617Z,69.79
2022-10-06T07:42:33.555Z,68.96
2022-10-06T07:43:33.507Z,71.18
2022-10-06T07:44:33.489Z,68.15
2022-10-06T07:45:33.530Z,69.43
2022-10-06T07:46:33.454Z,70.93
2022-10-06T07:47:33.464Z,70.61
2022-10-06T07:48:33.418Z,69.47
2022-10-06T07:49:33.398Z,69.16
2022-10-06T07:50:33.396Z,71.12
2022-10-06T07:51:33.383Z,69.51
2022-10-06T07:52:33.369Z,68.31
2022-10-06T07:53:33.322Z,68.90
2022-10-06T07:54:33.310Z,69.13
2022-10-06T07:55:33.311Z,71.21
2022-10-06T07:56:33.271Z,71.39
2022-10-06T07:57:33.281Z,69.78
2022-10-06T07:58:33.232Z,71.81
2022-10-06T07:59:33.215Z,70.69
2022-10-06T08:01:34.218Z,72.80
2022-10-06T08:02:35.735Z,73.05
2022-10-06T08:03:33.138Z,71.94
2022-10-06T08:04:33.122Z,71.17
2022-10-06T08:05:33.101Z,70.23
2022-10-06T08:06:33.080Z,70.66
2022-10-06T08:07:33.086Z,71.87
2022-10-06T08:08:33.046Z,71.05
2022-10-06T08:09:33.031Z,72.12
2022-10-06T08:10:33.009Z,69.97
2022-10-06T08:11:32.990Z,73.02
2022-10-06T08:12:33.041Z,71.28
2022-10-06T08:13:32.959Z,71.51
2022-10-06T08:14:32.937Z,71.36
2022-10-06T08:15:32.916Z,71.16
2022-10-06T08:16:32.949Z,71.86
2022-10-06T08:17:32.907Z,72.02
2022-10-06T08:18:48.212Z,72.33
2022-10-06T08:19:34.847Z,70.29
2022-10-06T08:20:32.823Z,69.69
2022-10-06T08:21:32.806Z,69.53
2022-10-06T08:22:32.813Z,68.97
2022-10-06T08:23:32.768Z,71.31
2022-10-06T08:24:54.219Z,72.25
2022-10-06T08:25:34.736Z,70.88
2022-10-06T08:26:32.715Z,72.23
2022-10-06T08:27:32.728Z,72.84
2022-10-06T08:28:32.748Z,69.34
2022-10-06T08:29:32.662Z,70.59
2022-10-06T08:30:32.641Z,70.13
2022-10-06T08:31:32.790Z,72.12
2022-10-06T08:32:32.628Z,70.82
2022-10-06T08:33:32.583Z,71.39
2022-10-06T08:34:32.558Z,70.06
2022-10-06T08:35:32.544Z,71.03
2022-10-06T08:36:32.910Z,70.60
2022-10-06T08:37:33.535Z,70.31
2022-10-06T08:38:32.491Z,69.95
2022-10-06T08:39:32.475Z,69.95
2022-10-06T08:40:32.456Z,67.78
2022-10-06T08:41:32.437Z,70.01
2022-10-06T08:42:32.441Z,68.15
2022-10-06T08:43:32.403Z,67.83
2022-10-06T08:44:32.389Z,69.35
2022-10-06T08:45:36.262Z,69.22
2022-10-06T08:46:34.352Z,70.46
2022-10-06T08:47:32.352Z,70.59
2022-10-06T08:48:32.308Z,69.39
2022-10-06T08:49:32.287Z,71.17
2022-10-06T08:50:32.264Z,70.24
2022-10-06T08:51:32.249Z,69.17
2022-10-06T08:52:32.266Z,68.92
2022-10-06T08:53:32.211Z,70.22
2022-10-06T08:54:32.189Z,68.83
2022-10-06T08:55:32.173Z,70.10
2022-10-06T08:56:32.155Z,70.97
2022-10-06T08:57:32.161Z,67.77
2022-10-06T08:58:33.380Z,70.67
2022-10-06T08:59:32.098Z,70.12
2022-10-06T09:00:32.076Z,65.20
2022-10-06T09:01:32.137Z,68.77
2022-10-06T09:02:32.096Z,70.44
2022-10-06T09:03:32.020Z,70.35
2022-10-06T09:04:32.005Z,71.48
2022-10-06T09:05:31.982Z,67.86
2022-10-06T09:06:31.966Z,70.43
2022-10-06T09:07:31.976Z,69.47
2022-10-06T09:08:31.930Z,67.95
2022-10-06T09:09:31.909Z,69.26
2022-10-06T09:10:31.889Z,68.59
2022-10-06T09:11:31.872Z,66.86
2022-10-06T09:12:31.878Z,67.34
2022-10-06T09:13:31.848Z,67.37
2022-10-06T09:14:31.813Z,67.48
2022-10-06T09:15:31.797Z,67.38
2022-10-06T09:16:31.824Z,68.10
2022-10-06T09:17:31.788Z,68.22
2022-10-06T09:18:49.863Z,68.87
2022-10-06T09:19:33.989Z,68.91
2022-10-06T09:20:32.761Z,66.74
2022-10-06T09:21:31.687Z,69.81
2022-10-06T09:22:31.698Z,68.20
2022-10-06T09:23:31.657Z,69.18
2022-10-06T09:24:31.634Z,69.71
2022-10-06T09:25:31.617Z,68.69
2022-10-06T09:26:31.597Z,68.85
2022-10-06T09:27:31.606Z,68.13
2022-10-06T09:28:31.669Z,70.01
2022-10-06T09:29:31.541Z,67.81
2022-10-06T09:30:31.524Z,67.83
2022-10-06T09:31:31.530Z,69.01
2022-10-06T09:32:31.514Z,68.44
2022-10-06T09:33:31.469Z,70.05
2022-10-06T09:34:31.448Z,68.71
2022-10-06T09:35:31.426Z,67.01
2022-10-06T09:36:31.408Z,66.40
2022-10-06T09:37:31.416Z,69.56
2022-10-06T09:38:31.372Z,67.07
2022-10-06T09:39:31.354Z,66.10
2022-10-06T09:40:31.336Z,65.75
2022-10-06T09:41:31.321Z,66.09
2022-10-06T09:42:31.328Z,67.17
2022-10-06T09:43:31.284Z,65.92
2022-10-06T09:44:31.278Z,66.65
2022-10-06T09:45:31.248Z,68.32
2022-10-06T09:46:31.229Z,68.76
2022-10-06T09:47:31.233Z,67.26
2022-10-06T09:48:31.197Z,68.74
2022-10-06T09:49:31.176Z,68.44
2022-10-06T09:50:31.164Z,68.48
2022-10-06T09:51:31.136Z,69.92
2022-10-06T09:52:31.178Z,69.91
2022-10-06T09:53:35.492Z,68.54
2022-10-06T09:54:32.085Z,68.63
2022-10-06T09:55:31.312Z,69.78
2022-10-06T09:56:31.354Z,67.57
2022-10-06T09:57:31.981Z,66.63
2022-10-06T09:58:31.126Z,66.03
2022-10-06T09:59:32.458Z,67.62
2022-10-06T10:00:30.997Z,66.96
2022-10-06T10:01:31.013Z,70.20
2022-10-06T10:02:31.009Z,69.01
2022-10-06T10:03:30.920Z,69.17
2022-10-06T10:04:30.899Z,70.72
2022-10-06T10:05:30.885Z,70.71
2022-10-06T10:06:30.860Z,70.07
2022-10-06T10:07:30.867Z,71.72
2022-10-06T10:08:30.962Z,69.84
2022-10-06T10:09:31.799Z,69.55
2022-10-06T10:10:31.936Z,70.00
2022-10-06T10:11:31.069Z,69.56
2022-10-06T10:12:30.797Z,69.56
2022-10-06T10:13:30.743Z,70.72
2022-10-06T10:14:30.744Z,68.50
2022-10-06T10:15:31.807Z,70.40
2022-10-06T10:16:32.893Z,69.50
2022-10-06T10:17:30.717Z,71.01
2022-10-06T10:18:33.764Z,70.02
2022-10-06T10:19:31.632Z,69.35
2022-10-06T10:20:30.634Z,70.17
2022-10-06T10:21:31.814Z,68.64
2022-10-06T10:22:30.650Z,70.13
2022-10-06T10:23:32.271Z,71.05
2022-10-06T10:24:31.529Z,69.61
2022-10-06T10:25:30.568Z,71.73
2022-10-06T10:26:30.618Z,69.66
2022-10-06T10:27:30.499Z,71.45
2022-10-06T10:28:30.492Z,70.63
2022-10-06T10:29:32.824Z,70.63
2022-10-06T10:30:31.417Z,69.26
2022-10-06T10:31:30.568Z,70.10
2022-10-06T10:32:31.276Z,69.04
2022-10-06T10:33:30.381Z,69.36
2022-10-06T10:34:30.347Z,71.28
2022-10-06T10:35:30.318Z,69.98
2022-10-06T10:36:30.301Z,69.50
2022-10-06T10:37:30.314Z,70.87
2022-10-06T10:38:30.263Z,71.33
2022-10-06T10:39:30.241Z,69.95
2022-10-06T10:40:30.244Z,70.87
2022-10-06T10:41:30.214Z,69.37
2022-10-06T10:42:30.217Z,70.53
2022-10-06T10:43:30.171Z,69.96
2022-10-06T10:44:30.149Z,69.46
2022-10-06T10:45:30.131Z,70.25
2022-10-06T10:46:30.155Z,70.76
2022-10-06T10:47:30.119Z,70.76
2022-10-06T10:48:30.069Z,71.36
2022-10-06T10:49:30.059Z,72.15
2022-10-06T10:50:30.038Z,71.76
2022-10-06T10:51:30.029Z,70.84
2022-10-06T10:52:30.023Z,68.58
2022-10-06T10:53:29.974Z,69.27
2022-10-06T10:54:29.958Z,73.03
2022-10-06T10:55:29.941Z,71.78
2022-10-06T10:56:29.921Z,70.75
2022-10-06T10:57:29.921Z,70.84
2022-10-06T10:58:29.884Z,69.47
2022-10-06T10:59:29.865Z,71.20
2022-10-06T11:00:29.843Z,70.27
2022-10-06T11:01:29.828Z,69.41
2022-10-06T11:02:29.829Z,70.35
2022-10-06T11:03:29.786Z,71.09
2022-10-06T11:04:29.761Z,71.79
2022-10-06T11:05:29.761Z,69.16
2022-10-06T11:06:29.724Z,70.94
2022-10-06T11:07:29.722Z,69.63
2022-10-06T11:08:30.695Z,69.62
2022-10-06T11:09:29.690Z,71.12
2022-10-06T11:10:29.648Z,69.53
2022-10-06T11:11:29.626Z,70.60
2022-10-06T11:12:29.635Z,68.81
2022-10-06T11:13:29.594Z,68.54
2022-10-06T11:14:29.571Z,70.25
2022-10-06T11:15:29.553Z,70.01
2022-10-06T11:16:29.641Z,71.23
2022-10-06T11:17:29.915Z,68.37
2022-10-06T11:18:29.517Z,69.74
2022-10-06T11:19:29.475Z,70.46
2022-10-06T11:20:29.458Z,71.29
2022-10-06T11:21:29.459Z,70.72
2022-10-06T11:22:29.468Z,67.28
2022-10-06T11:23:29.403Z,70.20
2022-10-06T11:24:29.384Z,69.02
2022-10-06T11:25:32.697Z,69.25
2022-10-06T11:26:30.346Z,68.74
2022-10-06T11:27:29.358Z,71.44
2022-10-06T11:28:29.386Z,68.57
2022-10-06T11:29:29.311Z,70.97
2022-10-06T11:30:29.271Z,70.58
2022-10-06T11:31:29.293Z,66.82
2022-10-06T11:32:29.264Z,68.36
2022-10-06T11:33:29.220Z,68.68
2022-10-06T11:34:29.199Z,71.61
2022-10-06T11:35:29.188Z,70.37
2022-10-06T11:36:29.161Z,70.25
2022-10-06T11:37:29.169Z,71.68
2022-10-06T11:38:29.127Z,70.11
2022-10-06T11:39:29.099Z,68.29
2022-10-06T11:40:29.095Z,68.78
2022-10-06T11:41:29.067Z,68.92
2022-10-06T11:43:29.053Z,71.03
2022-10-06T11:44:29.459Z,72.24
2022-10-06T11:45:29.064Z,69.89
2022-10-06T11:46:31.810Z,68.41
2022-10-06T11:47:36.408Z,70.22
2022-10-06T11:48:30.946Z,70.30
2022-10-06T11:49:28.919Z,69.68
2022-10-06T11:50:28.905Z,69.90
2022-10-06T11:51:28.877Z,69.00
2022-10-06T11:52:28.884Z,70.10
2022-10-06T11:53:28.839Z,68.36
2022-10-06T11:54:28.826Z,67.81
2022-10-06T11:55:28.808Z,71.11
2022-10-06T11:56:28.899Z,68.23
2022-10-06T11:57:31.126Z,69.92
2022-10-06T11:58:41.837Z,70.43
2022-10-06T11:59:30.743Z,70.69
2022-10-06T12:00:28.708Z,69.12
2022-10-06T12:01:28.694Z,70.31
2022-10-06T12:02:28.865Z,66.79
2022-10-06T12:03:28.680Z,70.24
2022-10-06T12:04:28.660Z,70.44
2022-10-06T12:05:55.301Z,70.37
2022-10-06T12:06:30.596Z,71.94
2022-10-06T12:07:28.603Z,69.64
2022-10-06T12:08:29.555Z,69.18
2022-10-06T12:09:28.539Z,70.66
2022-10-06T12:10:28.529Z,71.29
2022-10-06T12:11:28.496Z,72.28
2022-10-06T12:12:28.503Z,72.26
2022-10-06T12:17:30.419Z,70.15
2022-10-06T12:18:28.367Z,68.20
2022-10-06T12:19:28.347Z,69.80
2022-10-06T12:20:28.322Z,71.19
2022-10-06T12:21:28.303Z,72.50
2022-10-06T12:22:28.318Z,71.95
2022-10-06T12:23:28.314Z,68.56
2022-10-06T12:24:28.248Z,68.74
2022-10-06T12:25:28.231Z,69.20
2022-10-06T12:26:28.210Z,70.26
2022-10-06T12:27:28.228Z,71.76
2022-10-06T12:28:28.218Z,72.46
2022-10-06T12:29:28.225Z,70.22
2022-10-06T12:30:28.162Z,70.39
2022-10-06T12:31:28.221Z,69.59
2022-10-06T12:32:28.122Z,70.80
2022-10-06T12:33:28.081Z,69.19
2022-10-06T12:34:28.056Z,71.03
2022-10-06T12:35:28.039Z,71.22
2022-10-06T12:36:28.019Z,71.70
2022-10-06T12:37:28.023Z,70.98
2022-10-06T12:38:27.975Z,71.47
2022-10-06T12:39:27.960Z,73.00
2022-10-06T12:40:27.942Z,71.57
2022-10-06T12:41:27.933Z,70.95
2022-10-06T12:42:27.926Z,70.37
2022-10-06T12:43:27.885Z,69.96
2022-10-06T12:44:27.877Z,70.35
2022-10-06T12:45:27.840Z,71.08
2022-10-06T12:46:28.910Z,68.38
2022-10-06T12:47:27.835Z,71.84
2022-10-06T12:48:27.788Z,70.31
2022-10-06T12:49:27.770Z,71.42
2022-10-06T12:50:27.754Z,70.89
2022-10-06T12:51:27.758Z,70.66
2022-10-06T12:52:27.742Z,70.40
2022-10-06T12:53:27.691Z,70.36
2022-10-06T12:54:27.675Z,70.96
2022-10-06T12:55:27.656Z,72.11
2022-10-06T12:56:27.635Z,69.35
2022-10-06T12:57:27.640Z,69.45
2022-10-06T12:58:27.588Z,71.43
2022-10-06T12:59:27.571Z,72.70